Terminal Aerodrome Forecast
Issued by NWS Buffalo, NY

Home | Current Version | Previous Version | Text Only | Print | Product List | Glossary On
Versions: 1 2 3 4 5 6 7 8 9 10 11 12 13 14 15 16 17 18 19 20 21 22 23
000
FTUS41 KBUF 211500 AAA
TAFART
TAF AMD
KART 211522Z 2115/2212 24015G27KT P6SM BKN035 BKN050 OVC080
     FM211600 24017G25KT P6SM SCT060
     FM211900 24017G29KT P6SM SCT250
     FM212300 21012G22KT P6SM FEW250
     FM220100 21010KT P6SM SCT070
     FM220300 21010KT P6SM BKN060=

USA.gov is the U.S. government's official web portal to all federal, state and local government web resources and services.